sensor_id;sensor_type;location;lat;lon;timestamp;P1;durP1;ratioP1;P2;durP2;ratioP2
2576;SDS011;1298;51.252;6.802;2023-11-21T00:00:43;17.63;;;10.60;;
2576;SDS011;1298;51.252;6.802;2023-11-21T00:03:29;17.05;;;10.80;;
2576;SDS011;1298;51.252;6.802;2023-11-21T00:06:14;19.38;;;12.52;;
2576;SDS011;1298;51.252;6.802;2023-11-21T00:09:01;21.05;;;13.30;;
2576;SDS011;1298;51.252;6.802;2023-11-21T00:11:47;17.25;;;11.65;;
2576;SDS011;1298;51.252;6.802;2023-11-21T00:14:32;17.73;;;12.20;;
2576;SDS011;1298;51.252;6.802;2023-11-21T00:17:18;16.60;;;11.38;;
2576;SDS011;1298;51.252;6.802;2023-11-21T00:20:05;14.98;;;10.85;;
2576;SDS011;1298;51.252;6.802;2023-11-21T00:22:51;15.35;;;10.35;;
2576;SDS011;1298;51.252;6.802;2023-11-21T00:25:38;17.30;;;12.07;;
2576;SDS011;1298;51.252;6.802;2023-11-21T00:28:24;14.57;;;11.35;;
2576;SDS011;1298;51.252;6.802;2023-11-21T00:31:10;18.38;;;10.50;;
2576;SDS011;1298;51.252;6.802;2023-11-21T00:33:56;14.57;;;10.55;;
2576;SDS011;1298;51.252;6.802;2023-11-21T00:36:41;20.15;;;13.20;;
2576;SDS011;1298;51.252;6.802;2023-11-21T00:39:27;22.15;;;12.88;;
2576;SDS011;1298;51.252;6.802;2023-11-21T00:42:14;22.25;;;11.95;;
2576;SDS011;1298;51.252;6.802;2023-11-21T00:44:59;18.15;;;13.35;;
2576;SDS011;1298;51.252;6.802;2023-11-21T00:47:45;15.70;;;12.73;;
2576;SDS011;1298;51.252;6.802;2023-11-21T00:50:30;19.05;;;12.80;;
2576;SDS011;1298;51.252;6.802;2023-11-21T00:53:16;28.65;;;15.07;;
2576;SDS011;1298;51.252;6.802;2023-11-21T00:56:02;17.75;;;13.05;;
2576;SDS011;1298;51.252;6.802;2023-11-21T00:58:50;20.88;;;15.57;;
2576;SDS011;1298;51.252;6.802;2023-11-21T01:01:36;21.10;;;13.35;;
2576;SDS011;1298;51.252;6.802;2023-11-21T01:04:22;20.50;;;15.05;;
2576;SDS011;1298;51.252;6.802;2023-11-21T01:07:08;28.73;;;15.10;;
2576;SDS011;1298;51.252;6.802;2023-11-21T01:09:53;24.05;;;15.35;;
2576;SDS011;1298;51.252;6.802;2023-11-21T01:12:39;25.63;;;16.10;;
2576;SDS011;1298;51.252;6.802;2023-11-21T01:15:26;22.00;;;14.55;;
2576;SDS011;1298;51.252;6.802;2023-11-21T01:18:12;25.48;;;14.77;;
2576;SDS011;1298;51.252;6.802;2023-11-21T01:20:57;20.73;;;14.57;;
2576;SDS011;1298;51.252;6.802;2023-11-21T01:23:44;21.95;;;15.32;;
2576;SDS011;1298;51.252;6.802;2023-11-21T01:26:30;19.02;;;12.60;;
2576;SDS011;1298;51.252;6.802;2023-11-21T01:29:16;19.00;;;13.10;;
2576;SDS011;1298;51.252;6.802;2023-11-21T01:32:03;20.92;;;14.00;;
2576;SDS011;1298;51.252;6.802;2023-11-21T01:34:51;24.20;;;13.35;;
2576;SDS011;1298;51.252;6.802;2023-11-21T01:37:37;21.77;;;13.73;;
2576;SDS011;1298;51.252;6.802;2023-11-21T01:40:23;19.17;;;13.15;;
2576;SDS011;1298;51.252;6.802;2023-11-21T01:43:08;21.50;;;13.65;;
2576;SDS011;1298;51.252;6.802;2023-11-21T01:45:54;19.63;;;13.77;;
2576;SDS011;1298;51.252;6.802;2023-11-21T01:48:42;23.40;;;14.25;;
2576;SDS011;1298;51.252;6.802;2023-11-21T01:51:28;25.60;;;13.90;;
2576;SDS011;1298;51.252;6.802;2023-11-21T01:54:14;21.63;;;14.02;;
2576;SDS011;1298;51.252;6.802;2023-11-21T01:57:00;21.73;;;15.02;;
2576;SDS011;1298;51.252;6.802;2023-11-21T01:59:49;27.67;;;15.32;;
2576;SDS011;1298;51.252;6.802;2023-11-21T02:02:38;21.30;;;15.35;;
2576;SDS011;1298;51.252;6.802;2023-11-21T02:05:26;22.13;;;16.92;;
2576;SDS011;1298;51.252;6.802;2023-11-21T02:08:12;26.65;;;16.92;;
2576;SDS011;1298;51.252;6.802;2023-11-21T02:10:58;21.77;;;16.48;;
2576;SDS011;1298;51.252;6.802;2023-11-21T02:13:44;28.33;;;19.52;;
2576;SDS011;1298;51.252;6.802;2023-11-21T02:16:29;29.00;;;17.50;;
2576;SDS011;1298;51.252;6.802;2023-11-21T02:19:18;25.98;;;17.33;;
2576;SDS011;1298;51.252;6.802;2023-11-21T02:22:08;34.05;;;18.98;;
2576;SDS011;1298;51.252;6.802;2023-11-21T02:24:55;30.17;;;17.55;;
2576;SDS011;1298;51.252;6.802;2023-11-21T02:27:41;27.73;;;14.90;;
2576;SDS011;1298;51.252;6.802;2023-11-21T02:30:27;18.48;;;13.77;;
2576;SDS011;1298;51.252;6.802;2023-11-21T02:33:15;21.42;;;15.73;;
2576;SDS011;1298;51.252;6.802;2023-11-21T02:36:00;25.63;;;16.10;;
2576;SDS011;1298;51.252;6.802;2023-11-21T02:38:46;23.55;;;16.42;;
2576;SDS011;1298;51.252;6.802;2023-11-21T02:41:33;28.25;;;18.27;;
2576;SDS011;1298;51.252;6.802;2023-11-21T02:44:19;26.50;;;17.42;;
2576;SDS011;1298;51.252;6.802;2023-11-21T02:47:04;28.23;;;19.20;;
2576;SDS011;1298;51.252;6.802;2023-11-21T02:49:50;20.13;;;16.63;;
2576;SDS011;1298;51.252;6.802;2023-11-21T02:52:36;24.63;;;16.85;;
2576;SDS011;1298;51.252;6.802;2023-11-21T02:55:22;23.25;;;16.60;;
2576;SDS011;1298;51.252;6.802;2023-11-21T02:58:10;20.92;;;15.25;;
2576;SDS011;1298;51.252;6.802;2023-11-21T03:00:55;18.80;;;15.40;;
2576;SDS011;1298;51.252;6.802;2023-11-21T03:03:41;25.27;;;16.33;;
2576;SDS011;1298;51.252;6.802;2023-11-21T03:06:26;21.08;;;14.27;;
2576;SDS011;1298;51.252;6.802;2023-11-21T03:09:12;27.63;;;19.33;;
2576;SDS011;1298;51.252;6.802;2023-11-21T03:11:57;24.20;;;16.20;;
2576;SDS011;1298;51.252;6.802;2023-11-21T03:14:44;27.48;;;17.95;;
2576;SDS011;1298;51.252;6.802;2023-11-21T03:17:30;25.27;;;16.25;;
2576;SDS011;1298;51.252;6.802;2023-11-21T03:20:17;23.48;;;15.27;;
2576;SDS011;1298;51.252;6.802;2023-11-21T03:23:03;24.50;;;14.32;;
2576;SDS011;1298;51.252;6.802;2023-11-21T03:25:48;17.73;;;13.57;;
2576;SDS011;1298;51.252;6.802;2023-11-21T03:28:34;23.45;;;15.32;;
2576;SDS011;1298;51.252;6.802;2023-11-21T03:31:21;22.73;;;15.95;;
2576;SDS011;1298;51.252;6.802;2023-11-21T03:34:06;21.80;;;14.35;;
2576;SDS011;1298;51.252;6.802;2023-11-21T03:36:56;33.55;;;20.15;;
2576;SDS011;1298;51.252;6.802;2023-11-21T03:39:42;28.17;;;19.80;;
2576;SDS011;1298;51.252;6.802;2023-11-21T03:42:27;27.95;;;19.70;;
2576;SDS011;1298;51.252;6.802;2023-11-21T03:45:13;28.48;;;19.70;;
2576;SDS011;1298;51.252;6.802;2023-11-21T03:48:00;25.73;;;18.75;;
2576;SDS011;1298;51.252;6.802;2023-11-21T03:50:46;27.77;;;17.35;;
2576;SDS011;1298;51.252;6.802;2023-11-21T03:53:32;20.17;;;14.45;;
2576;SDS011;1298;51.252;6.802;2023-11-21T03:56:17;23.08;;;18.42;;
2576;SDS011;1298;51.252;6.802;2023-11-21T03:59:03;21.13;;;15.38;;
2576;SDS011;1298;51.252;6.802;2023-11-21T04:01:48;25.23;;;18.02;;
2576;SDS011;1298;51.252;6.802;2023-11-21T04:04:35;33.72;;;20.38;;
2576;SDS011;1298;51.252;6.802;2023-11-21T04:07:21;30.63;;;20.35;;
2576;SDS011;1298;51.252;6.802;2023-11-21T04:10:07;33.13;;;20.67;;
2576;SDS011;1298;51.252;6.802;2023-11-21T04:12:56;28.23;;;19.40;;
2576;SDS011;1298;51.252;6.802;2023-11-21T04:15:41;31.83;;;20.92;;
2576;SDS011;1298;51.252;6.802;2023-11-21T04:18:27;32.80;;;21.38;;
2576;SDS011;1298;51.252;6.802;2023-11-21T04:21:14;31.33;;;21.63;;
2576;SDS011;1298;51.252;6.802;2023-11-21T04:23:59;32.90;;;19.60;;
2576;SDS011;1298;51.252;6.802;2023-11-21T04:26:45;30.77;;;19.63;;
2576;SDS011;1298;51.252;6.802;2023-11-21T04:29:31;35.72;;;20.73;;
2576;SDS011;1298;51.252;6.802;2023-11-21T04:32:16;33.10;;;20.38;;
2576;SDS011;1298;51.252;6.802;2023-11-21T04:35:02;38.10;;;20.42;;
2576;SDS011;1298;51.252;6.802;2023-11-21T04:37:49;27.88;;;19.70;;
2576;SDS011;1298;51.252;6.802;2023-11-21T04:40:36;36.40;;;20.08;;
2576;SDS011;1298;51.252;6.802;2023-11-21T04:43:22;29.88;;;18.95;;
2576;SDS011;1298;51.252;6.802;2023-11-21T04:46:07;32.90;;;18.52;;
2576;SDS011;1298;51.252;6.802;2023-11-21T04:48:53;27.17;;;17.17;;
2576;SDS011;1298;51.252;6.802;2023-11-21T04:51:39;29.83;;;18.05;;
2576;SDS011;1298;51.252;6.802;2023-11-21T04:54:27;28.73;;;17.55;;
2576;SDS011;1298;51.252;6.802;2023-11-21T04:57:12;30.33;;;18.27;;
2576;SDS011;1298;51.252;6.802;2023-11-21T04:59:58;31.20;;;19.38;;
2576;SDS011;1298;51.252;6.802;2023-11-21T05:02:44;28.45;;;19.60;;
2576;SDS011;1298;51.252;6.802;2023-11-21T05:05:30;27.80;;;18.67;;
2576;SDS011;1298;51.252;6.802;2023-11-21T05:08:15;24.80;;;17.38;;
2576;SDS011;1298;51.252;6.802;2023-11-21T05:11:04;33.50;;;20.30;;
2576;SDS011;1298;51.252;6.802;2023-11-21T05:13:50;25.25;;;17.45;;
2576;SDS011;1298;51.252;6.802;2023-11-21T05:16:36;33.92;;;20.20;;
2576;SDS011;1298;51.252;6.802;2023-11-21T05:19:22;28.65;;;17.30;;
2576;SDS011;1298;51.252;6.802;2023-11-21T05:22:07;27.25;;;17.38;;
2576;SDS011;1298;51.252;6.802;2023-11-21T05:24:55;31.55;;;19.02;;
2576;SDS011;1298;51.252;6.802;2023-11-21T05:27:44;35.38;;;19.88;;
2576;SDS011;1298;51.252;6.802;2023-11-21T05:30:30;31.85;;;20.52;;
2576;SDS011;1298;51.252;6.802;2023-11-21T05:33:16;36.20;;;21.80;;
2576;SDS011;1298;51.252;6.802;2023-11-21T05:36:01;37.40;;;21.35;;
2576;SDS011;1298;51.252;6.802;2023-11-21T05:38:47;31.92;;;22.45;;
2576;SDS011;1298;51.252;6.802;2023-11-21T05:41:34;36.67;;;22.35;;
2576;SDS011;1298;51.252;6.802;2023-11-21T05:44:21;35.25;;;20.67;;
2576;SDS011;1298;51.252;6.802;2023-11-21T05:47:07;38.40;;;23.15;;
2576;SDS011;1298;51.252;6.802;2023-11-21T05:49:53;37.72;;;23.42;;
2576;SDS011;1298;51.252;6.802;2023-11-21T05:52:39;43.85;;;23.00;;
2576;SDS011;1298;51.252;6.802;2023-11-21T05:55:25;38.13;;;23.40;;
2576;SDS011;1298;51.252;6.802;2023-11-21T05:58:11;38.15;;;22.73;;
2576;SDS011;1298;51.252;6.802;2023-11-21T06:00:58;41.40;;;23.67;;
2576;SDS011;1298;51.252;6.802;2023-11-21T06:03:44;42.88;;;23.20;;
2576;SDS011;1298;51.252;6.802;2023-11-21T06:06:29;43.17;;;23.65;;
2576;SDS011;1298;51.252;6.802;2023-11-21T06:09:15;35.47;;;22.50;;
2576;SDS011;1298;51.252;6.802;2023-11-21T06:12:01;41.80;;;24.95;;
2576;SDS011;1298;51.252;6.802;2023-11-21T06:14:47;41.42;;;24.95;;
2576;SDS011;1298;51.252;6.802;2023-11-21T06:17:34;38.35;;;20.50;;
2576;SDS011;1298;51.252;6.802;2023-11-21T06:20:21;38.42;;;22.55;;
2576;SDS011;1298;51.252;6.802;2023-11-21T06:23:06;40.08;;;22.45;;
2576;SDS011;1298;51.252;6.802;2023-11-21T06:25:52;37.17;;;23.92;;
2576;SDS011;1298;51.252;6.802;2023-11-21T06:28:38;44.65;;;23.75;;
2576;SDS011;1298;51.252;6.802;2023-11-21T06:31:24;47.47;;;24.75;;
2576;SDS011;1298;51.252;6.802;2023-11-21T06:34:11;42.20;;;24.85;;
2576;SDS011;1298;51.252;6.802;2023-11-21T06:36:56;50.38;;;25.90;;
2576;SDS011;1298;51.252;6.802;2023-11-21T06:39:42;42.90;;;24.70;;
2576;SDS011;1298;51.252;6.802;2023-11-21T06:42:27;41.67;;;24.45;;
2576;SDS011;1298;51.252;6.802;2023-11-21T06:45:14;47.35;;;27.80;;
2576;SDS011;1298;51.252;6.802;2023-11-21T06:48:00;49.05;;;25.58;;
2576;SDS011;1298;51.252;6.802;2023-11-21T06:50:47;40.70;;;25.08;;
2576;SDS011;1298;51.252;6.802;2023-11-21T06:53:32;44.20;;;25.70;;
2576;SDS011;1298;51.252;6.802;2023-11-21T06:56:18;47.33;;;24.00;;
2576;SDS011;1298;51.252;6.802;2023-11-21T06:59:04;46.10;;;24.83;;
2576;SDS011;1298;51.252;6.802;2023-11-21T07:01:50;42.03;;;24.50;;
2576;SDS011;1298;51.252;6.802;2023-11-21T07:04:35;53.35;;;24.17;;
2576;SDS011;1298;51.252;6.802;2023-11-21T07:07:22;50.22;;;25.90;;
2576;SDS011;1298;51.252;6.802;2023-11-21T07:10:08;51.08;;;26.88;;
2576;SDS011;1298;51.252;6.802;2023-11-21T07:12:54;50.40;;;24.50;;
2576;SDS011;1298;51.252;6.802;2023-11-21T07:15:40;42.78;;;23.17;;
2576;SDS011;1298;51.252;6.802;2023-11-21T07:18:27;47.47;;;25.00;;
2576;SDS011;1298;51.252;6.802;2023-11-21T07:21:12;48.92;;;22.00;;
2576;SDS011;1298;51.252;6.802;2023-11-21T07:24:02;41.08;;;22.98;;
2576;SDS011;1298;51.252;6.802;2023-11-21T07:26:48;41.80;;;23.27;;
2576;SDS011;1298;51.252;6.802;2023-11-21T07:29:34;46.70;;;22.80;;
2576;SDS011;1298;51.252;6.802;2023-11-21T07:32:20;47.40;;;23.50;;
2576;SDS011;1298;51.252;6.802;2023-11-21T07:35:06;47.20;;;23.48;;
2576;SDS011;1298;51.252;6.802;2023-11-21T07:37:51;44.60;;;24.85;;
2576;SDS011;1298;51.252;6.802;2023-11-21T07:40:39;49.65;;;21.83;;
2576;SDS011;1298;51.252;6.802;2023-11-21T07:43:24;46.67;;;22.50;;
2576;SDS011;1298;51.252;6.802;2023-11-21T07:46:10;52.38;;;23.55;;
2576;SDS011;1298;51.252;6.802;2023-11-21T07:48:56;46.38;;;24.85;;
2576;SDS011;1298;51.252;6.802;2023-11-21T07:51:41;46.97;;;26.05;;
2576;SDS011;1298;51.252;6.802;2023-11-21T07:54:27;53.63;;;28.65;;
2576;SDS011;1298;51.252;6.802;2023-11-21T07:57:14;54.85;;;27.08;;
2576;SDS011;1298;51.252;6.802;2023-11-21T08:00:00;55.65;;;25.05;;
2576;SDS011;1298;51.252;6.802;2023-11-21T08:02:48;59.97;;;28.27;;
2576;SDS011;1298;51.252;6.802;2023-11-21T08:05:34;51.42;;;26.13;;
2576;SDS011;1298;51.252;6.802;2023-11-21T08:08:20;59.08;;;28.10;;
2576;SDS011;1298;51.252;6.802;2023-11-21T08:11:06;60.20;;;33.15;;
2576;SDS011;1298;51.252;6.802;2023-11-21T08:13:53;55.53;;;28.75;;
2576;SDS011;1298;51.252;6.802;2023-11-21T08:16:39;49.90;;;25.52;;
2576;SDS011;1298;51.252;6.802;2023-11-21T08:19:25;55.03;;;28.85;;
2576;SDS011;1298;51.252;6.802;2023-11-21T08:22:10;55.90;;;28.40;;
2576;SDS011;1298;51.252;6.802;2023-11-21T08:24:57;61.53;;;30.02;;
2576;SDS011;1298;51.252;6.802;2023-11-21T08:27:43;52.75;;;30.08;;
2576;SDS011;1298;51.252;6.802;2023-11-21T08:30:30;48.67;;;27.23;;
2576;SDS011;1298;51.252;6.802;2023-11-21T08:33:16;61.25;;;28.05;;
2576;SDS011;1298;51.252;6.802;2023-11-21T08:36:06;78.40;;;38.78;;
2576;SDS011;1298;51.252;6.802;2023-11-21T08:38:52;59.08;;;29.45;;
2576;SDS011;1298;51.252;6.802;2023-11-21T08:41:38;63.22;;;34.53;;
2576;SDS011;1298;51.252;6.802;2023-11-21T08:44:25;55.90;;;29.23;;
2576;SDS011;1298;51.252;6.802;2023-11-21T08:47:11;58.30;;;30.48;;
2576;SDS011;1298;51.252;6.802;2023-11-21T08:49:58;64.90;;;32.67;;
2576;SDS011;1298;51.252;6.802;2023-11-21T08:52:43;58.03;;;31.25;;
2576;SDS011;1298;51.252;6.802;2023-11-21T08:55:30;54.78;;;33.08;;
2576;SDS011;1298;51.252;6.802;2023-11-21T08:58:20;59.50;;;31.60;;
2576;SDS011;1298;51.252;6.802;2023-11-21T09:01:06;64.18;;;34.47;;
2576;SDS011;1298;51.252;6.802;2023-11-21T09:03:53;61.65;;;29.33;;
2576;SDS011;1298;51.252;6.802;2023-11-21T09:06:39;61.33;;;32.03;;
2576;SDS011;1298;51.252;6.802;2023-11-21T09:09:24;59.78;;;31.67;;
2576;SDS011;1298;51.252;6.802;2023-11-21T09:12:10;54.65;;;27.90;;
2576;SDS011;1298;51.252;6.802;2023-11-21T09:14:56;57.10;;;30.65;;
2576;SDS011;1298;51.252;6.802;2023-11-21T09:17:42;60.17;;;31.08;;
2576;SDS011;1298;51.252;6.802;2023-11-21T09:20:29;54.40;;;28.10;;
2576;SDS011;1298;51.252;6.802;2023-11-21T09:23:15;59.28;;;31.88;;
2576;SDS011;1298;51.252;6.802;2023-11-21T09:26:00;55.13;;;31.73;;
2576;SDS011;1298;51.252;6.802;2023-11-21T09:28:47;54.97;;;29.48;;
2576;SDS011;1298;51.252;6.802;2023-11-21T09:31:32;53.67;;;28.38;;
2576;SDS011;1298;51.252;6.802;2023-11-21T09:34:19;60.28;;;29.35;;
2576;SDS011;1298;51.252;6.802;2023-11-21T09:37:06;49.47;;;26.92;;
2576;SDS011;1298;51.252;6.802;2023-11-21T09:39:52;51.10;;;28.95;;
2576;SDS011;1298;51.252;6.802;2023-11-21T09:42:38;52.75;;;30.00;;
2576;SDS011;1298;51.252;6.802;2023-11-21T09:45:27;52.20;;;29.15;;
2576;SDS011;1298;51.252;6.802;2023-11-21T09:48:14;50.88;;;29.13;;
2576;SDS011;1298;51.252;6.802;2023-11-21T09:51:01;51.10;;;28.05;;
2576;SDS011;1298;51.252;6.802;2023-11-21T09:53:50;50.70;;;29.60;;
2576;SDS011;1298;51.252;6.802;2023-11-21T09:56:36;54.55;;;30.45;;
2576;SDS011;1298;51.252;6.802;2023-11-21T09:59:22;51.72;;;29.52;;
2576;SDS011;1298;51.252;6.802;2023-11-21T10:02:07;52.70;;;30.10;;
2576;SDS011;1298;51.252;6.802;2023-11-21T10:04:56;56.40;;;28.33;;
2576;SDS011;1298;51.252;6.802;2023-11-21T10:07:43;53.67;;;28.35;;
2576;SDS011;1298;51.252;6.802;2023-11-21T10:10:31;56.47;;;29.90;;
2576;SDS011;1298;51.252;6.802;2023-11-21T10:13:17;59.33;;;32.95;;
2576;SDS011;1298;51.252;6.802;2023-11-21T10:16:03;52.92;;;31.77;;
2576;SDS011;1298;51.252;6.802;2023-11-21T10:18:52;51.80;;;29.42;;
2576;SDS011;1298;51.252;6.802;2023-11-21T10:21:39;61.38;;;31.42;;
2576;SDS011;1298;51.252;6.802;2023-11-21T10:24:24;61.75;;;34.58;;
2576;SDS011;1298;51.252;6.802;2023-11-21T10:27:11;65.80;;;34.60;;
2576;SDS011;1298;51.252;6.802;2023-11-21T10:29:56;78.05;;;39.97;;
2576;SDS011;1298;51.252;6.802;2023-11-21T10:32:42;67.18;;;36.72;;
2576;SDS011;1298;51.252;6.802;2023-11-21T10:35:38;64.30;;;33.50;;
2576;SDS011;1298;51.252;6.802;2023-11-21T10:38:24;79.80;;;39.45;;
2576;SDS011;1298;51.252;6.802;2023-11-21T10:41:11;67.75;;;38.78;;
2576;SDS011;1298;51.252;6.802;2023-11-21T10:44:00;76.50;;;39.92;;
2576;SDS011;1298;51.252;6.802;2023-11-21T10:46:48;84.45;;;42.30;;
2576;SDS011;1298;51.252;6.802;2023-11-21T10:49:34;85.00;;;42.15;;
2576;SDS011;1298;51.252;6.802;2023-11-21T10:52:26;93.28;;;44.17;;
2576;SDS011;1298;51.252;6.802;2023-11-21T10:55:18;93.70;;;41.88;;
2576;SDS011;1298;51.252;6.802;2023-11-21T10:58:05;89.28;;;46.00;;
2576;SDS011;1298;51.252;6.802;2023-11-21T11:00:52;97.10;;;42.03;;
2576;SDS011;1298;51.252;6.802;2023-11-21T11:03:37;81.03;;;39.50;;
2576;SDS011;1298;51.252;6.802;2023-11-21T11:06:23;82.32;;;40.53;;
2576;SDS011;1298;51.252;6.802;2023-11-21T11:09:11;91.82;;;40.33;;
2576;SDS011;1298;51.252;6.802;2023-11-21T11:12:00;91.25;;;43.85;;
2576;SDS011;1298;51.252;6.802;2023-11-21T11:14:48;86.35;;;44.28;;
2576;SDS011;1298;51.252;6.802;2023-11-21T11:17:35;89.60;;;43.33;;
2576;SDS011;1298;51.252;6.802;2023-11-21T11:20:25;88.30;;;43.65;;
2576;SDS011;1298;51.252;6.802;2023-11-21T11:23:23;78.15;;;40.50;;
2576;SDS011;1298;51.252;6.802;2023-11-21T11:26:20;81.60;;;36.58;;
2576;SDS011;1298;51.252;6.802;2023-11-21T11:29:18;86.43;;;39.63;;
2576;SDS011;1298;51.252;6.802;2023-11-21T11:32:13;68.75;;;34.28;;
2576;SDS011;1298;51.252;6.802;2023-11-21T11:35:10;68.22;;;33.08;;
2576;SDS011;1298;51.252;6.802;2023-11-21T11:38:02;71.60;;;35.15;;
2576;SDS011;1298;51.252;6.802;2023-11-21T11:40:48;74.22;;;34.58;;
2576;SDS011;1298;51.252;6.802;2023-11-21T11:43:38;66.15;;;33.53;;
2576;SDS011;1298;51.252;6.802;2023-11-21T11:49:30;74.93;;;34.85;;
2576;SDS011;1298;51.252;6.802;2023-11-21T11:52:38;72.30;;;33.03;;
2576;SDS011;1298;51.252;6.802;2023-11-21T11:55:25;68.93;;;35.72;;
2576;SDS011;1298;51.252;6.802;2023-11-21T11:58:14;70.07;;;35.15;;
2576;SDS011;1298;51.252;6.802;2023-11-21T12:01:03;74.28;;;36.55;;
2576;SDS011;1298;51.252;6.802;2023-11-21T12:07:14;60.83;;;32.03;;
2576;SDS011;1298;51.252;6.802;2023-11-21T12:10:02;50.90;;;28.58;;
2576;SDS011;1298;51.252;6.802;2023-11-21T12:12:49;66.68;;;37.00;;
2576;SDS011;1298;51.252;6.802;2023-11-21T12:15:36;45.47;;;26.92;;
2576;SDS011;1298;51.252;6.802;2023-11-21T12:18:22;48.33;;;25.70;;
2576;SDS011;1298;51.252;6.802;2023-11-21T12:21:09;58.72;;;29.77;;
2576;SDS011;1298;51.252;6.802;2023-11-21T12:23:55;51.80;;;28.10;;
2576;SDS011;1298;51.252;6.802;2023-11-21T12:26:42;43.58;;;27.00;;
2576;SDS011;1298;51.252;6.802;2023-11-21T12:29:28;42.88;;;25.45;;
2576;SDS011;1298;51.252;6.802;2023-11-21T12:32:14;37.80;;;24.00;;
2576;SDS011;1298;51.252;6.802;2023-11-21T12:35:02;42.88;;;23.60;;
2576;SDS011;1298;51.252;6.802;2023-11-21T12:37:50;40.08;;;23.95;;
2576;SDS011;1298;51.252;6.802;2023-11-21T12:40:37;41.63;;;23.55;;
2576;SDS011;1298;51.252;6.802;2023-11-21T12:43:24;52.60;;;26.83;;
2576;SDS011;1298;51.252;6.802;2023-11-21T12:46:11;44.22;;;25.05;;
2576;SDS011;1298;51.252;6.802;2023-11-21T12:48:57;43.65;;;26.98;;
2576;SDS011;1298;51.252;6.802;2023-11-21T12:51:43;53.67;;;29.17;;
2576;SDS011;1298;51.252;6.802;2023-11-21T12:54:29;47.22;;;27.65;;
2576;SDS011;1298;51.252;6.802;2023-11-21T12:57:15;45.97;;;28.45;;
2576;SDS011;1298;51.252;6.802;2023-11-21T13:00:02;53.17;;;29.08;;
2576;SDS011;1298;51.252;6.802;2023-11-21T13:02:54;52.03;;;31.00;;
2576;SDS011;1298;51.252;6.802;2023-11-21T13:05:42;51.72;;;30.38;;
2576;SDS011;1298;51.252;6.802;2023-11-21T13:08:28;59.85;;;32.13;;
2576;SDS011;1298;51.252;6.802;2023-11-21T13:11:16;57.30;;;31.42;;
2576;SDS011;1298;51.252;6.802;2023-11-21T13:14:02;58.42;;;33.33;;
2576;SDS011;1298;51.252;6.802;2023-11-21T13:16:49;56.15;;;31.55;;
2576;SDS011;1298;51.252;6.802;2023-11-21T13:19:35;56.85;;;32.88;;
2576;SDS011;1298;51.252;6.802;2023-11-21T13:22:21;60.95;;;32.58;;
2576;SDS011;1298;51.252;6.802;2023-11-21T13:25:08;63.28;;;34.47;;
2576;SDS011;1298;51.252;6.802;2023-11-21T13:27:54;60.25;;;33.03;;
2576;SDS011;1298;51.252;6.802;2023-11-21T13:30:39;65.53;;;34.88;;
2576;SDS011;1298;51.252;6.802;2023-11-21T13:33:26;67.93;;;36.80;;
2576;SDS011;1298;51.252;6.802;2023-11-21T13:36:12;54.60;;;31.45;;
2576;SDS011;1298;51.252;6.802;2023-11-21T13:38:59;62.25;;;35.30;;
2576;SDS011;1298;51.252;6.802;2023-11-21T13:41:50;62.17;;;34.30;;
2576;SDS011;1298;51.252;6.802;2023-11-21T13:44:38;58.03;;;32.38;;
2576;SDS011;1298;51.252;6.802;2023-11-21T13:47:27;54.42;;;29.63;;
2576;SDS011;1298;51.252;6.802;2023-11-21T13:50:16;52.92;;;30.15;;
2576;SDS011;1298;51.252;6.802;2023-11-21T13:53:06;56.25;;;32.30;;
2576;SDS011;1298;51.252;6.802;2023-11-21T13:56:01;54.13;;;32.20;;
2576;SDS011;1298;51.252;6.802;2023-11-21T13:58:47;58.22;;;33.80;;
2576;SDS011;1298;51.252;6.802;2023-11-21T14:01:35;70.07;;;35.70;;
2576;SDS011;1298;51.252;6.802;2023-11-21T14:04:37;61.88;;;35.08;;
2576;SDS011;1298;51.252;6.802;2023-11-21T14:07:39;65.93;;;37.33;;
2576;SDS011;1298;51.252;6.802;2023-11-21T14:10:31;54.45;;;31.23;;
2576;SDS011;1298;51.252;6.802;2023-11-21T14:13:23;44.88;;;26.88;;
2576;SDS011;1298;51.252;6.802;2023-11-21T14:16:09;36.70;;;21.17;;
2576;SDS011;1298;51.252;6.802;2023-11-21T14:18:55;30.27;;;19.63;;
2576;SDS011;1298;51.252;6.802;2023-11-21T14:21:47;32.00;;;19.17;;
2576;SDS011;1298;51.252;6.802;2023-11-21T14:24:34;30.75;;;18.10;;
2576;SDS011;1298;51.252;6.802;2023-11-21T14:27:20;29.42;;;18.85;;
2576;SDS011;1298;51.252;6.802;2023-11-21T14:30:06;26.20;;;17.80;;
2576;SDS011;1298;51.252;6.802;2023-11-21T14:32:56;29.55;;;18.20;;
2576;SDS011;1298;51.252;6.802;2023-11-21T14:35:42;25.15;;;16.67;;
2576;SDS011;1298;51.252;6.802;2023-11-21T14:38:28;27.05;;;17.48;;
2576;SDS011;1298;51.252;6.802;2023-11-21T14:41:15;20.63;;;15.25;;
2576;SDS011;1298;51.252;6.802;2023-11-21T14:44:01;20.42;;;15.60;;
2576;SDS011;1298;51.252;6.802;2023-11-21T14:46:47;21.58;;;15.32;;
2576;SDS011;1298;51.252;6.802;2023-11-21T14:49:34;22.88;;;15.45;;
2576;SDS011;1298;51.252;6.802;2023-11-21T14:52:34;27.00;;;18.60;;
2576;SDS011;1298;51.252;6.802;2023-11-21T14:55:21;20.80;;;15.98;;
2576;SDS011;1298;51.252;6.802;2023-11-21T14:58:16;21.13;;;15.52;;
2576;SDS011;1298;51.252;6.802;2023-11-21T15:01:10;140.98;;;108.72;;
2576;SDS011;1298;51.252;6.802;2023-11-21T15:03:54;19.95;;;14.90;;
2576;SDS011;1298;51.252;6.802;2023-11-21T15:06:40;19.95;;;14.63;;
2576;SDS011;1298;51.252;6.802;2023-11-21T15:09:26;25.00;;;16.40;;
2576;SDS011;1298;51.252;6.802;2023-11-21T15:12:23;22.30;;;16.42;;
2576;SDS011;1298;51.252;6.802;2023-11-21T15:15:12;19.85;;;14.57;;
2576;SDS011;1298;51.252;6.802;2023-11-21T15:17:57;22.00;;;16.00;;
2576;SDS011;1298;51.252;6.802;2023-11-21T15:20:43;22.20;;;16.60;;
2576;SDS011;1298;51.252;6.802;2023-11-21T15:23:29;24.05;;;16.98;;
2576;SDS011;1298;51.252;6.802;2023-11-21T15:26:18;24.08;;;17.30;;
2576;SDS011;1298;51.252;6.802;2023-11-21T15:29:06;31.65;;;27.45;;
2576;SDS011;1298;51.252;6.802;2023-11-21T15:31:53;27.23;;;20.17;;
2576;SDS011;1298;51.252;6.802;2023-11-21T15:34:40;28.70;;;20.25;;
2576;SDS011;1298;51.252;6.802;2023-11-21T15:37:25;25.05;;;18.30;;
2576;SDS011;1298;51.252;6.802;2023-11-21T15:40:12;28.52;;;20.60;;
2576;SDS011;1298;51.252;6.802;2023-11-21T15:42:59;30.02;;;20.25;;
2576;SDS011;1298;51.252;6.802;2023-11-21T15:45:46;24.33;;;19.80;;
2576;SDS011;1298;51.252;6.802;2023-11-21T15:48:34;26.33;;;17.63;;
2576;SDS011;1298;51.252;6.802;2023-11-21T15:51:20;30.48;;;17.65;;
2576;SDS011;1298;51.252;6.802;2023-11-21T15:54:06;18.00;;;13.80;;
2576;SDS011;1298;51.252;6.802;2023-11-21T15:56:53;18.88;;;14.48;;
2576;SDS011;1298;51.252;6.802;2023-11-21T15:59:40;16.20;;;13.35;;
2576;SDS011;1298;51.252;6.802;2023-11-21T16:02:26;18.05;;;13.38;;
2576;SDS011;1298;51.252;6.802;2023-11-21T16:05:15;16.25;;;12.45;;
2576;SDS011;1298;51.252;6.802;2023-11-21T16:08:01;16.90;;;12.40;;
2576;SDS011;1298;51.252;6.802;2023-11-21T16:10:47;15.57;;;11.32;;
2576;SDS011;1298;51.252;6.802;2023-11-21T16:13:32;17.02;;;12.18;;
2576;SDS011;1298;51.252;6.802;2023-11-21T16:16:22;15.98;;;10.80;;
2576;SDS011;1298;51.252;6.802;2023-11-21T16:19:07;12.70;;;9.48;;
2576;SDS011;1298;51.252;6.802;2023-11-21T16:21:55;11.00;;;9.80;;
2576;SDS011;1298;51.252;6.802;2023-11-21T16:24:40;14.65;;;9.80;;
2576;SDS011;1298;51.252;6.802;2023-11-21T16:27:26;14.18;;;8.77;;
2576;SDS011;1298;51.252;6.802;2023-11-21T16:30:11;15.18;;;9.73;;
2576;SDS011;1298;51.252;6.802;2023-11-21T16:32:57;10.55;;;9.05;;
2576;SDS011;1298;51.252;6.802;2023-11-21T16:35:43;10.90;;;8.50;;
2576;SDS011;1298;51.252;6.802;2023-11-21T16:38:32;12.23;;;9.80;;
2576;SDS011;1298;51.252;6.802;2023-11-21T16:41:17;13.30;;;9.48;;
2576;SDS011;1298;51.252;6.802;2023-11-21T16:44:03;11.80;;;9.85;;
2576;SDS011;1298;51.252;6.802;2023-11-21T16:46:49;13.00;;;9.80;;
2576;SDS011;1298;51.252;6.802;2023-11-21T16:49:36;13.35;;;9.27;;
2576;SDS011;1298;51.252;6.802;2023-11-21T16:52:24;11.13;;;8.20;;